1858 NOT_NAMED (1858052S12061)


IBTrACS version v04r00. Visit IBTrACS website for data access.
Please direct all questions to the IBTrACS Q and A forum

Storm track - Intensity - Wind Radii - Intensity Data - Source Data - All data

Summary Information

Storm ID 1858052S12061
Start Feb 21 06Z
End Feb 27 06Z
ATCF IDs
Track status Best track data.

Storm track plot

Map of storm track

Intensity plots

No Intensity information for this storm


Radial wind information

No radial wind information for this storm


Position and Intensity Table

BASIN ISO_TIME_________ NATURE LAT LON
degrees north degrees east
SI 1858-02-21 06:00:00 NR -12.40 60.50
SI 09:00:00 NR -12.49 60.39
SI 12:00:00 NR -12.58 60.28
SI 15:00:00 NR -12.68 60.16
SI 18:00:00 NR -12.79 60.09
SI 21:00:00 NR -12.92 59.98
SI 1858-02-22 00:00:00 NR -13.05 59.84
SI 03:00:00 NR -13.21 59.69
SI 06:00:00 NR -13.40 59.50
SI 09:00:00 NR -13.62 59.30
SI 12:00:00 NR -13.88 59.08
SI 15:00:00 NR -14.15 58.84
SI 18:00:00 NR -14.43 58.60
SI 21:00:00 NR -14.71 58.36
SI 1858-02-23 00:00:00 NR -14.99 58.10
SI 03:00:00 NR -15.27 57.85
SI 06:00:00 NR -15.55 57.60
SI 09:00:00 NR -15.82 57.35
SI 12:00:00 NR -16.09 57.10
SI 15:00:00 NR -16.37 56.86
SI 18:00:00 NR -16.65 56.63
SI 21:00:00 NR -16.94 56.40
SI 1858-02-24 00:00:00 NR -17.23 56.19
SI 03:00:00 NR -17.52 55.99
SI 06:00:00 NR -17.80 55.80
SI 09:00:00 NR -18.05 55.62
SI 12:00:00 NR -18.29 55.46
SI 15:00:00 NR -18.53 55.30
SI 18:00:00 NR -18.78 55.14
SI 21:00:00 NR -19.06 54.98
SI 1858-02-25 00:00:00 NR -19.34 54.82
SI 03:00:00 NR -19.62 54.66
SI 06:00:00 NR -19.90 54.50
SI 09:00:00 NR -20.17 54.34
SI 12:00:00 NR -20.43 54.19
SI 15:00:00 NR -20.68 54.05
SI 18:00:00 NR -20.93 53.92
SI 21:00:00 NR -21.17 53.80
SI 1858-02-26 00:00:00 NR -21.39 53.68
SI 03:00:00 NR -21.61 53.56
SI 06:00:00 NR -21.82 53.44
SI 09:00:00 NR -22.01 53.31
SI 12:00:00 NR -22.20 53.24
SI 15:00:00 NR -22.38 53.17
SI 18:00:00 NR -22.56 53.11
SI 21:00:00 NR -22.72 53.05
SI 1858-02-27 00:00:00 NR -22.89 53.00
SI 03:00:00 NR -23.04 52.95
SI 06:00:00 NR -23.20 52.90

Source Information

Agency Information
USA
TOKYO
CMA
HKO
NEWDELHI
REUNION WMO-Best-Tracks.txt:Line=156:xxxx858023
BOM
NADI
WELLINGTON
DS824
TD9636 cons_worldwide_trop_cyclone_18710101-19891231-005:Line=213
TD9635
NEUMANN
MLC

All available IBTrACS Data

SEASON BASIN SUBBASIN ISO_TIME_________ NATURE LAT LON WMO AGENCY DIST2LAND LANDFALL IFLAG USA SSHS REUNION LAT REUNION LON REUNION TYPE REUNION TNUM TD9636 LAT TD9636 LON TD9636 STAGE STORM SPEED STORM DIR
Year degrees north degrees east km km 1 degrees north degrees east 1 degrees north degrees east kts degrees
1858 SI MM 1858-02-21 06:00:00 NR -12.40 60.50 reunion 912 898 _____O________ -1 -12.40 60.50 99 9.90 3 229
1858 SI MM 09:00:00 NR -12.49 60.39 898 883 _____P________ -1 -12.49 60.39 99 3 230
1858 SI MM 12:00:00 NR -12.58 60.28 883 870 _____P________ -1 -12.58 60.28 99 3 230
1858 SI MM 15:00:00 NR -12.68 60.16 870 856 _____P________ -1 -12.68 60.16 99 3 221
1858 SI MM 18:00:00 NR -12.79 60.09 856 842 _____P____O___ -1 -12.79 60.03 99 -12.80 60.30 7 3 217
1858 SI MM 21:00:00 NR -12.92 59.98 842 825 _____P____P___ -1 -12.92 59.90 99 -12.92 60.14 7 4 222
1858 SI MM 1858-02-22 00:00:00 NR -13.05 59.84 814 801 _____P____P___ -1 -13.06 59.75 99 -13.05 59.97 7 4 224
1858 SI MM 03:00:00 NR -13.21 59.69 801 773 _____P____P___ -1 -13.22 59.58 99 -13.21 59.79 7 5 224
1858 SI MM 06:00:00 NR -13.40 59.50 reunion 773 747 _____O____O___ -1 -13.40 59.40 99 9.90 -13.40 59.60 7 6 223
1858 SI MM 09:00:00 NR -13.62 59.30 747 709 _____P____P___ -1 -13.61 59.20 99 -13.64 59.39 7 6 221
1858 SI MM 12:00:00 NR -13.88 59.08 709 683 _____P____P___ -1 -13.84 58.98 99 -13.91 59.17 7 7 220
1858 SI MM 15:00:00 NR -14.15 58.84 681 644 _____P____P___ -1 -14.09 58.75 99 -14.20 58.94 7 7 220
1858 SI MM 18:00:00 NR -14.43 58.60 644 608 _____P____O___ -1 -14.36 58.50 99 -14.50 58.70 7 7 220
1858 SI MM 21:00:00 NR -14.71 58.36 608 572 _____P____P___ -1 -14.64 58.25 99 -14.77 58.46 7 7 221
1858 SI MM 1858-02-23 00:00:00 NR -14.99 58.10 572 537 _____P____P___ -1 -14.92 58.00 99 -15.05 58.21 7 7 221
1858 SI MM 03:00:00 NR -15.27 57.85 537 514 _____P____P___ -1 -15.21 57.75 99 -15.32 57.95 7 7 221
1858 SI MM 06:00:00 NR -15.55 57.60 reunion 514 481 _____O____O___ -1 -15.50 57.50 99 9.90 -15.60 57.70 7 7 221
1858 SI MM 09:00:00 NR -15.82 57.35 481 449 _____P____P___ -1 -15.77 57.26 99 -15.87 57.44 7 7 221
1858 SI MM 12:00:00 NR -16.09 57.10 449 418 _____P____P___ -1 -16.05 57.02 99 -16.14 57.18 7 7 221
1858 SI MM 15:00:00 NR -16.37 56.86 418 400 _____P____P___ -1 -16.32 56.79 99 -16.42 56.94 7 7 219
1858 SI MM 18:00:00 NR -16.65 56.63 402 373 _____P____O___ -1 -16.60 56.55 99 -16.70 56.70 7 7 218
1858 SI MM 21:00:00 NR -16.94 56.40 376 352 _____P____P___ -1 -16.88 56.33 99 -17.00 56.48 7 7 216
1858 SI MM 1858-02-24 00:00:00 NR -17.23 56.19 352 330 _____P____P___ -1 -17.15 56.11 99 -17.31 56.27 7 7 214
1858 SI MM 03:00:00 NR -17.52 55.99 330 313 _____P____P___ -1 -17.43 55.90 99 -17.62 56.08 7 7 213
1858 SI MM 06:00:00 NR -17.80 55.80 reunion 313 301 _____O____O___ -1 -17.70 55.70 99 9.90 -17.90 55.90 7 6 213
1858 SI MM 09:00:00 NR -18.05 55.62 299 290 _____P____P___ -1 -17.97 55.51 99 -18.13 55.74 7 6 213
1858 SI MM 12:00:00 NR -18.29 55.46 290 279 _____P____P___ -1 -18.24 55.33 99 -18.35 55.59 7 6 212
1858 SI MM 15:00:00 NR -18.53 55.30 279 246 _____P____P___ -1 -18.50 55.15 99 -18.57 55.45 7 6 211
1858 SI MM 18:00:00 NR -18.78 55.14 246 225 _____P____O___ -1 -18.76 54.99 99 -18.80 55.30 7 6 210
1858 SI MM 21:00:00 NR -19.06 54.98 214 194 _____P____P___ -1 -19.03 54.83 99 -19.09 55.13 7 6 209
1858 SI MM 1858-02-25 00:00:00 NR -19.34 54.82 197 168 _____P____P___ -1 -19.29 54.68 99 -19.39 54.95 7 6 208
1858 SI MM 03:00:00 NR -19.62 54.66 168 148 _____P____P___ -1 -19.54 54.54 99 -19.70 54.77 7 6 208
1858 SI MM 06:00:00 NR -19.90 54.50 reunion 148 129 _____O____O___ -1 -19.80 54.40 99 9.90 -20.00 54.60 7 6 208
1858 SI MM 09:00:00 NR -20.17 54.34 137 129 _____P____P___ -1 -20.07 54.25 99 -20.27 54.43 7 6 209
1858 SI MM 12:00:00 NR -20.43 54.19 130 122 _____P____P___ -1 -20.33 54.11 99 -20.52 54.28 7 6 208
1858 SI MM 15:00:00 NR -20.68 54.05 122 122 _____P____P___ -1 -20.59 53.97 99 -20.77 54.13 7 6 207
1858 SI MM 18:00:00 NR -20.93 53.92 136 134 _____P____O___ -1 -20.85 53.84 99 -21.00 54.00 7 5 206
1858 SI MM 21:00:00 NR -21.17 53.80 145 145 _____P____P___ -1 -21.10 53.72 99 -21.23 53.88 7 5 205
1858 SI MM 1858-02-26 00:00:00 NR -21.39 53.68 158 158 _____P____P___ -1 -21.35 53.60 99 -21.46 53.78 7 5 207
1858 SI MM 03:00:00 NR -21.61 53.56 174 174 _____P____P___ -1 -21.58 53.50 99 -21.68 53.69 7 5 208
1858 SI MM 06:00:00 NR -21.82 53.44 reunion 202 202 _____O____O___ -1 -21.80 53.40 99 9.90 -21.90 53.60 7 5 210
1858 SI MM 09:00:00 NR -22.01 53.31 220 220 _____P________ -1 -22.01 53.31 99 7 4 206
1858 SI MM 12:00:00 NR -22.20 53.24 239 239 _____P________ -1 -22.20 53.24 99 7 4 200
1858 SI MM 15:00:00 NR -22.38 53.17 249 249 _____P________ -1 -22.38 53.17 99 7 4 198
1858 SI MM 18:00:00 NR -22.56 53.11 269 269 _____P________ -1 -22.56 53.11 99 4 198
1858 SI MM 21:00:00 NR -22.72 53.05 275 275 _____P________ -1 -22.72 53.05 99 3 197
1858 SI MM 1858-02-27 00:00:00 NR -22.89 53.00 296 296 _____P________ -1 -22.89 53.00 99 3 197
1858 SI MM 03:00:00 NR -23.04 52.95 311 311 _____P________ -1 -23.04 52.95 99 3 196
1858 SI MM 06:00:00 NR -23.20 52.90 reunion 325 _____O________ -1 -23.20 52.90 99 9.90 3 197